Time;durP1;ratioP1;P1;durP2;ratioP2;P2;SDS_P1;SDS_P2;PMS_P1;PMS_P2;Temp;Humidity;BMP_temperature;BMP_pressure;BME280_temperature;BME280_humidity;BME280_pressure;Samples;Min_cycle;Max_cycle;Signal;HPM_P1;HPM_P2
2022/01/03 00:01:46;;;;;;;9.27;4.63;;;;;;;;;;6113883;28;20243;-65
2022/01/03 00:05:09;;;;;;;7.93;4.97;;;;;;;;;;6113234;28;20232;-65
2022/01/03 00:08:29;;;;;;;8.17;5.10;;;;;;;;;;6110717;28;20239;-64
2022/01/03 00:11:50;;;;;;;10.87;4.63;;;;;;;;;;6113934;28;20227;-65
2022/01/03 00:15:13;;;;;;;5.23;4.13;;;;;;;;;;6113861;28;20231;-66
2022/01/03 00:18:33;;;;;;;9.63;4.67;;;;;;;;;;6111059;28;20239;-64
2022/01/03 00:21:59;;;;;;;6.23;4.30;;;;;;;;;;6111349;28;20346;-65
2022/01/03 00:25:21;;;;;;;10.53;4.83;;;;;;;;;;6108865;28;20521;-65
2022/01/03 00:28:45;;;;;;;8.60;4.53;;;;;;;;;;6113254;28;20232;-64
2022/01/03 00:32:08;;;;;;;4.57;4.07;;;;;;;;;;6112416;28;20247;-65
2022/01/03 00:35:29;;;;;;;7.93;4.03;;;;;;;;;;6113361;28;20228;-65
2022/01/03 00:38:55;;;;;;;5.87;2.70;;;;;;;;;;6110809;28;20239;-65
2022/01/03 00:42:15;;;;;;;6.20;3.27;;;;;;;;;;6108163;28;20232;-64
2022/01/03 00:45:36;;;;;;;3.33;2.40;;;;;;;;;;6114365;28;21303;-66
2022/01/03 00:48:58;;;;;;;4.40;2.03;;;;;;;;;;6114694;28;20520;-65
2022/01/03 00:52:18;;;;;;;4.20;2.20;;;;;;;;;;6110713;28;20236;-65
2022/01/03 00:55:43;;;;;;;5.37;2.27;;;;;;;;;;6110897;28;20243;-65
2022/01/03 00:59:07;;;;;;;4.57;2.90;;;;;;;;;;6115384;28;20240;-66
2022/01/03 01:02:28;;;;;;;6.90;2.37;;;;;;;;;;6108041;28;20342;-65
2022/01/03 01:05:49;;;;;;;3.53;2.20;;;;;;;;;;6118758;28;20264;-66
2022/01/03 01:09:12;;;;;;;2.07;1.53;;;;;;;;;;6109538;28;20231;-65
2022/01/03 01:12:34;;;;;;;4.47;2.27;;;;;;;;;;6106540;28;20347;-65
2022/01/03 01:15:54;;;;;;;3.43;1.37;;;;;;;;;;6124503;28;20243;-65
2022/01/03 01:19:15;;;;;;;3.70;1.50;;;;;;;;;;6113635;28;20236;-66
2022/01/03 01:22:37;;;;;;;3.00;1.40;;;;;;;;;;6109286;28;20327;-66
2022/01/03 01:29:39;;;;;;;1.13;0.93;;;;;;;;;;6111580;28;20235;-65
2022/01/03 01:33:02;;;;;;;3.13;1.30;;;;;;;;;;6109107;28;20573;-65
2022/01/03 01:36:27;;;;;;;1.13;0.90;;;;;;;;;;6121790;28;20236;-66
2022/01/03 01:39:50;;;;;;;2.30;1.20;;;;;;;;;;6112191;28;20612;-65
2022/01/03 01:43:12;;;;;;;1.60;1.03;;;;;;;;;;6112103;28;20232;-65
2022/01/03 01:46:34;;;;;;;2.03;1.10;;;;;;;;;;6111934;28;20353;-65
2022/01/03 01:50:02;;;;;;;1.80;1.37;;;;;;;;;;6128079;28;20234;-65
2022/01/03 01:53:24;;;;;;;2.07;1.27;;;;;;;;;;6114242;28;20240;-65
2022/01/03 01:56:54;;;;;;;1.50;0.90;;;;;;;;;;6109978;28;20244;-65
2022/01/03 02:00:16;;;;;;;2.93;1.00;;;;;;;;;;6093917;28;20239;-64
2022/01/03 02:03:57;;;;;;;2.00;0.97;;;;;;;;;;6129315;28;20227;-65
2022/01/03 02:07:38;;;;;;;3.10;1.00;;;;;;;;;;6113475;28;20254;-65
2022/01/03 02:11:08;;;;;;;2.73;1.20;;;;;;;;;;6113841;28;20235;-66
2022/01/03 02:14:36;;;;;;;2.77;1.17;;;;;;;;;;6114921;28;20815;-65
2022/01/03 02:17:57;;;;;;;2.40;1.37;;;;;;;;;;6129403;28;20232;-65
2022/01/03 02:21:21;;;;;;;0.80;0.80;;;;;;;;;;6103279;28;20228;-65
2022/01/03 02:24:43;;;;;;;4.07;1.40;;;;;;;;;;6124664;28;20232;-65
2022/01/03 02:28:04;;;;;;;0.73;0.73;;;;;;;;;;6105267;28;20578;-65
2022/01/03 02:31:27;;;;;;;1.33;1.07;;;;;;;;;;6121673;28;20310;-66
2022/01/03 02:34:48;;;;;;;1.87;1.10;;;;;;;;;;6116747;28;20240;-66
2022/01/03 02:38:13;;;;;;;1.43;1.00;;;;;;;;;;6127929;28;20236;-64
2022/01/03 02:41:34;;;;;;;0.90;0.90;;;;;;;;;;6114484;28;20224;-66
2022/01/03 02:44:59;;;;;;;1.97;1.13;;;;;;;;;;6113685;28;20252;-65
2022/01/03 02:48:20;;;;;;;1.87;1.00;;;;;;;;;;6113617;28;20322;-65
2022/01/03 02:51:43;;;;;;;0.87;0.87;;;;;;;;;;6114103;28;20322;-65
2022/01/03 02:55:07;;;;;;;1.63;1.00;;;;;;;;;;6113274;28;20240;-66
2022/01/03 02:58:27;;;;;;;2.67;1.27;;;;;;;;;;6126784;28;20633;-65
2022/01/03 03:01:48;;;;;;;3.63;1.53;;;;;;;;;;6114400;28;20251;-66
2022/01/03 03:05:11;;;;;;;4.03;1.37;;;;;;;;;;6115520;28;20267;-65
2022/01/03 03:08:32;;;;;;;1.60;1.20;;;;;;;;;;6128306;28;20235;-65
2022/01/03 03:11:55;;;;;;;4.70;1.10;;;;;;;;;;6113442;28;20223;-66
2022/01/03 03:15:16;;;;;;;2.90;1.30;;;;;;;;;;6114162;28;20274;-66
2022/01/03 03:18:37;;;;;;;4.70;2.90;;;;;;;;;;6127346;28;20244;-65
2022/01/03 03:21:58;;;;;;;5.57;2.07;;;;;;;;;;6114118;28;20244;-66
2022/01/03 03:25:19;;;;;;;7.43;2.43;;;;;;;;;;6128391;28;20235;-65
2022/01/03 03:28:41;;;;;;;3.37;1.60;;;;;;;;;;6127490;28;20548;-65
2022/01/03 03:32:02;;;;;;;3.70;1.97;;;;;;;;;;6112882;28;20263;-66
2022/01/03 03:35:23;;;;;;;5.83;2.63;;;;;;;;;;6111089;28;20527;-65
2022/01/03 03:38:44;;;;;;;3.83;2.63;;;;;;;;;;6113826;28;20318;-65
2022/01/03 03:42:09;;;;;;;6.80;3.03;;;;;;;;;;6112318;28;20235;-65
2022/01/03 03:45:32;;;;;;;7.20;3.23;;;;;;;;;;6110831;28;20228;-66
2022/01/03 03:48:54;;;;;;;4.90;1.90;;;;;;;;;;6127533;28;20232;-65
2022/01/03 03:52:17;;;;;;;10.80;3.53;;;;;;;;;;6124623;28;20228;-65
2022/01/03 03:55:38;;;;;;;4.67;2.03;;;;;;;;;;6115227;28;20256;-65
2022/01/03 03:58:58;;;;;;;6.97;2.03;;;;;;;;;;6112728;28;20319;-66
2022/01/03 04:02:21;;;;;;;6.30;2.43;;;;;;;;;;6124055;28;20957;-65
2022/01/03 04:05:41;;;;;;;8.93;2.77;;;;;;;;;;6125477;28;20570;-65
2022/01/03 04:09:02;;;;;;;5.70;2.23;;;;;;;;;;6115007;28;20232;-65
2022/01/03 04:12:24;;;;;;;11.23;3.53;;;;;;;;;;6107813;28;20271;-65
2022/01/03 04:15:45;;;;;;;8.47;2.93;;;;;;;;;;6119792;28;20330;-65
2022/01/03 04:19:09;;;;;;;7.43;2.53;;;;;;;;;;6129261;28;20247;-65
2022/01/03 04:22:32;;;;;;;5.20;2.80;;;;;;;;;;6125338;28;20240;-64
2022/01/03 04:25:53;;;;;;;8.10;3.37;;;;;;;;;;6113200;28;20330;-65
2022/01/03 04:29:15;;;;;;;12.77;3.37;;;;;;;;;;6112311;28;20228;-64
2022/01/03 04:32:37;;;;;;;6.33;3.10;;;;;;;;;;6120547;28;20231;-65
2022/01/03 04:36:01;;;;;;;7.43;2.00;;;;;;;;;;6125188;28;20232;-66
2022/01/03 04:39:22;;;;;;;9.60;3.50;;;;;;;;;;6120668;28;20236;-65
2022/01/03 04:42:42;;;;;;;9.70;2.47;;;;;;;;;;6112255;28;20251;-65
2022/01/03 04:46:05;;;;;;;9.80;2.57;;;;;;;;;;6112379;28;20243;-65
2022/01/03 04:49:25;;;;;;;9.77;4.00;;;;;;;;;;6107251;28;20704;-65
2022/01/03 04:52:47;;;;;;;9.73;4.33;;;;;;;;;;6113519;28;20239;-66
2022/01/03 04:56:11;;;;;;;19.17;5.83;;;;;;;;;;6126229;28;20240;-64
2022/01/03 04:59:32;;;;;;;9.37;2.90;;;;;;;;;;6114969;28;20236;-65
2022/01/03 05:02:53;;;;;;;11.07;2.97;;;;;;;;;;6108320;28;20240;-65
2022/01/03 05:06:14;;;;;;;7.87;3.23;;;;;;;;;;6126485;28;20326;-64
2022/01/03 05:09:42;;;;;;;8.53;3.20;;;;;;;;;;6114029;28;20629;-65
2022/01/03 05:13:02;;;;;;;5.97;2.97;;;;;;;;;;6110977;28;20232;-63
2022/01/03 05:16:24;;;;;;;13.40;4.40;;;;;;;;;;6124495;28;20247;-65
2022/01/03 05:19:45;;;;;;;10.73;2.60;;;;;;;;;;6114872;28;20239;-65
2022/01/03 05:23:05;;;;;;;11.20;3.67;;;;;;;;;;6120949;28;20235;-65
2022/01/03 05:26:27;;;;;;;11.00;3.57;;;;;;;;;;6096800;28;20273;-65
2022/01/03 05:29:50;;;;;;;12.47;3.83;;;;;;;;;;6102214;29;20622;-64
2022/01/03 05:33:11;;;;;;;9.77;4.53;;;;;;;;;;6092785;28;20511;-64
2022/01/03 05:36:31;;;;;;;7.57;3.53;;;;;;;;;;6117524;28;20239;-66
2022/01/03 05:39:52;;;;;;;13.97;4.97;;;;;;;;;;6114871;28;20258;-66
2022/01/03 05:43:14;;;;;;;13.63;4.80;;;;;;;;;;6131524;28;20236;-65
2022/01/03 05:46:35;;;;;;;16.50;5.33;;;;;;;;;;6115415;28;20263;-65
2022/01/03 05:49:56;;;;;;;14.17;4.93;;;;;;;;;;6114192;28;20265;-65
2022/01/03 05:53:17;;;;;;;11.93;3.77;;;;;;;;;;6115007;28;20501;-65
2022/01/03 05:56:38;;;;;;;11.10;3.57;;;;;;;;;;6111285;28;20231;-65
2022/01/03 06:00:04;;;;;;;16.60;4.07;;;;;;;;;;6120681;28;20561;-65
2022/01/03 06:03:37;;;;;;;19.23;4.80;;;;;;;;;;6107354;28;20259;-65
2022/01/03 06:07:00;;;;;;;13.77;4.00;;;;;;;;;;6107674;28;20924;-65
2022/01/03 06:10:28;;;;;;;13.97;4.67;;;;;;;;;;6101534;28;20555;-64
2022/01/03 06:13:50;;;;;;;9.17;3.07;;;;;;;;;;6116761;28;20618;-66
2022/01/03 06:17:12;;;;;;;11.10;3.93;;;;;;;;;;6103725;28;20255;-65
2022/01/03 06:20:34;;;;;;;12.43;3.67;;;;;;;;;;6125335;28;20244;-65
2022/01/03 06:23:55;;;;;;;11.07;3.27;;;;;;;;;;6103594;28;20236;-65
2022/01/03 06:27:17;;;;;;;10.67;3.30;;;;;;;;;;6104922;28;20616;-66
2022/01/03 06:30:38;;;;;;;11.27;3.00;;;;;;;;;;6109451;28;20236;-64
2022/01/03 06:34:00;;;;;;;16.37;4.97;;;;;;;;;;6102243;28;20236;-65
2022/01/03 06:37:21;;;;;;;14.10;4.67;;;;;;;;;;6118708;28;20496;-65
2022/01/03 06:40:49;;;;;;;13.87;4.17;;;;;;;;;;6113823;28;20235;-64
2022/01/03 06:44:10;;;;;;;15.03;4.93;;;;;;;;;;6114512;28;20279;-65
2022/01/03 06:47:31;;;;;;;16.73;5.53;;;;;;;;;;6111956;28;20626;-65
2022/01/03 06:50:53;;;;;;;13.73;4.40;;;;;;;;;;6114501;28;20573;-65
2022/01/03 06:54:14;;;;;;;14.07;5.00;;;;;;;;;;6128187;28;20357;-65
2022/01/03 06:57:40;;;;;;;15.53;4.27;;;;;;;;;;6128806;28;20231;-66
2022/01/03 07:01:01;;;;;;;14.70;3.97;;;;;;;;;;6115351;28;20267;-65
2022/01/03 07:04:21;;;;;;;16.00;4.57;;;;;;;;;;6131111;28;20228;-65
2022/01/03 07:07:43;;;;;;;13.17;4.47;;;;;;;;;;6116068;28;20228;-65
2022/01/03 07:11:04;;;;;;;14.03;5.00;;;;;;;;;;6118413;28;20315;-65
2022/01/03 07:21:41;;;;;;;20.77;5.43;;;;;;;;;;6112399;28;20275;-65
2022/01/03 07:25:03;;;;;;;14.03;4.80;;;;;;;;;;6101859;28;20236;-65
2022/01/03 07:28:24;;;;;;;15.67;4.20;;;;;;;;;;6107503;28;20608;-65
2022/01/03 07:31:44;;;;;;;17.43;5.63;;;;;;;;;;6103268;28;20514;-65
2022/01/03 07:35:05;;;;;;;16.20;4.90;;;;;;;;;;6110448;28;20232;-65
2022/01/03 07:38:25;;;;;;;18.73;5.43;;;;;;;;;;6114686;28;20244;-64
2022/01/03 07:41:47;;;;;;;16.83;5.10;;;;;;;;;;6115163;28;20231;-65
2022/01/03 07:45:08;;;;;;;12.17;4.73;;;;;;;;;;6113301;28;20233;-64
2022/01/03 07:48:30;;;;;;;20.33;5.83;;;;;;;;;;6115155;28;20705;-64
2022/01/03 07:51:54;;;;;;;13.63;5.03;;;;;;;;;;6112311;28;20240;-65
2022/01/03 07:55:15;;;;;;;21.27;5.63;;;;;;;;;;6099657;28;20231;-63
2022/01/03 07:58:37;;;;;;;19.63;5.43;;;;;;;;;;6118009;28;20231;-66
2022/01/03 08:01:58;;;;;;;16.10;4.97;;;;;;;;;;6109042;28;20609;-62
2022/01/03 08:05:19;;;;;;;24.43;5.47;;;;;;;;;;6110794;28;20232;-62
2022/01/03 08:08:39;;;;;;;15.43;4.87;;;;;;;;;;6111460;28;20239;-65
2022/01/03 08:12:00;;;;;;;20.40;5.20;;;;;;;;;;6111645;28;20232;-64
2022/01/03 08:15:23;;;;;;;21.20;7.23;;;;;;;;;;6109456;28;20240;-64
2022/01/03 08:18:44;;;;;;;12.13;6.07;;;;;;;;;;6111958;28;20257;-66
2022/01/03 08:22:05;;;;;;;17.73;4.33;;;;;;;;;;6124851;28;20232;-64
2022/01/03 08:25:25;;;;;;;22.60;7.80;;;;;;;;;;6109947;28;20323;-64
2022/01/03 08:28:46;;;;;;;20.17;6.53;;;;;;;;;;6112271;28;20244;-65
2022/01/03 08:32:08;;;;;;;23.17;6.13;;;;;;;;;;6109610;28;20228;-65
2022/01/03 08:35:29;;;;;;;18.70;4.67;;;;;;;;;;6109983;28;20236;-65
2022/01/03 08:38:51;;;;;;;18.70;6.43;;;;;;;;;;6110633;28;20244;-66
2022/01/03 08:42:11;;;;;;;13.40;4.83;;;;;;;;;;6111024;28;20626;-64
2022/01/03 08:45:32;;;;;;;17.83;5.57;;;;;;;;;;6111681;28;20258;-65
2022/01/03 08:48:54;;;;;;;23.17;5.30;;;;;;;;;;6113533;28;20240;-64
2022/01/03 08:52:15;;;;;;;15.97;5.20;;;;;;;;;;6110632;28;20231;-64
2022/01/03 08:55:36;;;;;;;17.73;4.93;;;;;;;;;;6112857;28;20236;-63
2022/01/03 08:58:57;;;;;;;17.87;5.27;;;;;;;;;;6112913;28;20776;-64
2022/01/03 09:02:17;;;;;;;17.03;5.63;;;;;;;;;;6107987;28;20243;-64
2022/01/03 09:05:39;;;;;;;15.90;5.73;;;;;;;;;;6109587;28;20594;-65
2022/01/03 09:09:00;;;;;;;12.13;5.07;;;;;;;;;;6111244;28;20272;-65
2022/01/03 09:12:21;;;;;;;15.93;5.20;;;;;;;;;;6113504;28;20228;-64
2022/01/03 09:15:44;;;;;;;16.37;5.20;;;;;;;;;;6114038;28;20251;-65
2022/01/03 09:19:05;;;;;;;17.20;6.80;;;;;;;;;;6114713;28;20239;-64
2022/01/03 09:22:32;;;;;;;14.57;4.43;;;;;;;;;;6115604;28;20235;-65
2022/01/03 09:29:31;;;;;;;12.67;5.73;;;;;;;;;;6116357;28;20222;-65
2022/01/03 09:32:57;;;;;;;20.20;6.53;;;;;;;;;;6116846;28;20231;-65
2022/01/03 09:36:17;;;;;;;10.70;5.13;;;;;;;;;;6116084;28;20239;-63
2022/01/03 09:39:42;;;;;;;14.40;4.80;;;;;;;;;;6115903;28;20239;-63
2022/01/03 09:43:03;;;;;;;14.37;6.17;;;;;;;;;;6105509;28;20243;-63
2022/01/03 09:46:24;;;;;;;11.33;5.37;;;;;;;;;;6112529;28;20326;-63
2022/01/03 09:49:45;;;;;;;13.87;5.97;;;;;;;;;;6109136;28;20240;-66
2022/01/03 09:53:06;;;;;;;17.40;5.00;;;;;;;;;;6102614;28;20310;-64
2022/01/03 09:56:29;;;;;;;16.93;6.53;;;;;;;;;;6113447;28;20555;-64
2022/01/03 09:59:50;;;;;;;20.60;6.53;;;;;;;;;;6117021;28;20307;-65
2022/01/03 10:03:10;;;;;;;12.73;4.33;;;;;;;;;;6118811;28;20231;-64
2022/01/03 10:06:31;;;;;;;20.07;6.33;;;;;;;;;;6118665;28;20272;-64
2022/01/03 10:09:52;;;;;;;14.20;5.07;;;;;;;;;;6116300;28;20235;-65
2022/01/03 10:13:15;;;;;;;14.83;5.30;;;;;;;;;;6091206;29;20240;-65
2022/01/03 10:16:35;;;;;;;45.60;7.13;;;;;;;;;;6110375;28;20228;-65
2022/01/03 10:19:57;;;;;;;16.23;4.53;;;;;;;;;;6099183;28;20650;-65
2022/01/03 10:23:17;;;;;;;13.73;4.83;;;;;;;;;;6114593;28;20518;-63
2022/01/03 10:26:38;;;;;;;18.60;5.33;;;;;;;;;;6117555;28;20322;-65
2022/01/03 10:30:00;;;;;;;12.47;4.20;;;;;;;;;;6115709;28;20236;-65
2022/01/03 10:33:22;;;;;;;15.60;5.97;;;;;;;;;;6117424;28;20255;-65
2022/01/03 10:36:44;;;;;;;12.37;4.40;;;;;;;;;;6116211;28;20236;-65
2022/01/03 10:40:21;;;;;;;12.27;4.60;;;;;;;;;;6113867;28;20239;-64
2022/01/03 10:43:44;;;;;;;16.33;4.67;;;;;;;;;;6114082;28;20240;-64
2022/01/03 10:47:08;;;;;;;11.73;4.43;;;;;;;;;;6105211;28;20239;-64
2022/01/03 10:50:29;;;;;;;15.80;4.40;;;;;;;;;;6115138;28;20496;-65
2022/01/03 10:53:51;;;;;;;18.43;5.57;;;;;;;;;;6117393;28;21923;-65
2022/01/03 10:57:14;;;;;;;12.30;4.67;;;;;;;;;;6111342;28;22404;-64
2022/01/03 11:00:36;;;;;;;10.67;4.97;;;;;;;;;;6110499;28;20291;-64
2022/01/03 11:04:00;;;;;;;10.10;4.33;;;;;;;;;;6117891;28;20327;-66
2022/01/03 11:11:00;;;;;;;16.37;5.53;;;;;;;;;;6105139;28;20252;-65
2022/01/03 11:14:30;;;;;;;19.20;5.63;;;;;;;;;;6100314;28;20236;-65
2022/01/03 11:17:52;;;;;;;16.13;5.43;;;;;;;;;;6099755;28;20322;-66
2022/01/03 11:21:16;;;;;;;14.43;4.27;;;;;;;;;;6078159;29;20572;-65
2022/01/03 11:24:46;;;;;;;19.27;5.90;;;;;;;;;;6108565;28;21695;-64
2022/01/03 11:28:07;;;;;;;15.60;5.93;;;;;;;;;;6108054;28;20228;-66
2022/01/03 11:31:29;;;;;;;15.83;6.73;;;;;;;;;;6110005;28;20256;-66
2022/01/03 11:34:50;;;;;;;17.23;4.90;;;;;;;;;;6107031;28;20516;-65
2022/01/03 11:38:14;;;;;;;18.40;6.73;;;;;;;;;;6107145;28;20609;-65
2022/01/03 11:41:35;;;;;;;16.97;4.97;;;;;;;;;;6102656;28;20372;-65
2022/01/03 11:44:56;;;;;;;20.47;5.73;;;;;;;;;;6107835;28;20241;-65
2022/01/03 11:48:16;;;;;;;13.13;5.60;;;;;;;;;;6114144;28;20224;-64
2022/01/03 11:51:37;;;;;;;18.93;5.20;;;;;;;;;;6110777;28;20239;-65
2022/01/03 11:54:59;;;;;;;16.30;5.43;;;;;;;;;;6116307;28;20554;-66
2022/01/03 11:58:43;;;;;;;18.33;5.90;;;;;;;;;;6116178;28;20232;-64
2022/01/03 12:05:42;;;;;;;15.87;6.23;;;;;;;;;;6114125;28;20227;-64
2022/01/03 12:09:05;;;;;;;19.23;5.53;;;;;;;;;;6115205;28;20240;-65
2022/01/03 12:12:30;;;;;;;13.80;5.07;;;;;;;;;;6111734;28;20237;-65
2022/01/03 12:16:04;;;;;;;18.97;5.40;;;;;;;;;;6112632;28;20243;-64
2022/01/03 12:19:29;;;;;;;15.43;4.33;;;;;;;;;;6111149;28;20239;-64
2022/01/03 12:22:50;;;;;;;11.30;3.70;;;;;;;;;;6111081;28;20259;-65
2022/01/03 12:26:12;;;;;;;18.13;6.17;;;;;;;;;;6110162;28;20240;-65
2022/01/03 12:29:54;;;;;;;13.53;4.87;;;;;;;;;;6100124;28;20235;-66
2022/01/03 12:33:16;;;;;;;13.97;5.23;;;;;;;;;;6113029;28;20231;-64
2022/01/03 12:36:36;;;;;;;12.07;5.00;;;;;;;;;;6109212;28;20507;-62
2022/01/03 12:40:12;;;;;;;13.60;4.10;;;;;;;;;;6111807;28;20224;-62
2022/01/03 12:43:49;;;;;;;15.40;3.87;;;;;;;;;;6108381;28;20309;-62
2022/01/03 12:47:20;;;;;;;13.40;4.30;;;;;;;;;;6090738;29;20518;-65
2022/01/03 12:50:41;;;;;;;16.87;4.97;;;;;;;;;;6090437;28;20247;-65
2022/01/03 12:54:05;;;;;;;13.10;4.47;;;;;;;;;;6112487;28;20235;-66
2022/01/03 12:57:30;;;;;;;11.27;4.23;;;;;;;;;;6111915;28;20236;-65
2022/01/03 13:00:51;;;;;;;14.40;4.07;;;;;;;;;;6113446;28;20259;-64
2022/01/03 13:04:26;;;;;;;14.93;6.27;;;;;;;;;;6114238;28;20247;-65
2022/01/03 13:07:47;;;;;;;19.43;7.27;;;;;;;;;;6113758;28;20227;-65
2022/01/03 13:11:09;;;;;;;14.33;5.90;;;;;;;;;;6112034;28;20595;-65
2022/01/03 13:14:29;;;;;;;13.20;4.17;;;;;;;;;;6107683;28;20641;-66
2022/01/03 13:18:13;;;;;;;13.23;4.90;;;;;;;;;;6111024;28;20255;-65
2022/01/03 13:21:36;;;;;;;17.43;4.93;;;;;;;;;;6100762;28;20224;-65
2022/01/03 13:24:59;;;;;;;16.93;5.10;;;;;;;;;;6092148;28;20232;-63
2022/01/03 13:28:19;;;;;;;11.53;5.03;;;;;;;;;;6099850;28;20559;-64
2022/01/03 13:31:40;;;;;;;15.47;6.13;;;;;;;;;;6111407;28;20251;-65
2022/01/03 13:35:02;;;;;;;17.90;5.33;;;;;;;;;;6106521;28;20501;-65
2022/01/03 13:38:24;;;;;;;14.53;4.90;;;;;;;;;;6099231;28;20228;-66
2022/01/03 13:41:53;;;;;;;17.50;7.10;;;;;;;;;;6115423;28;20361;-64
2022/01/03 13:49:11;;;;;;;10.07;3.43;;;;;;;;;;6092702;28;20240;-65
2022/01/03 13:49:13;;;;;;;10.90;4.73;;;;;;;;;;6101903;28;20255;-66
2022/01/03 13:52:35;;;;;;;16.93;4.50;;;;;;;;;;6109723;28;20223;-66
2022/01/03 13:55:57;;;;;;;10.17;4.00;;;;;;;;;;6101692;28;20236;-66
2022/01/03 13:59:18;;;;;;;11.43;4.30;;;;;;;;;;6116346;28;20236;-65
2022/01/03 14:02:38;;;;;;;12.37;4.07;;;;;;;;;;6114726;28;20753;-65
2022/01/03 14:06:15;;;;;;;10.87;5.03;;;;;;;;;;6117561;28;20264;-65
2022/01/03 14:09:41;;;;;;;12.13;3.23;;;;;;;;;;6118284;28;20231;-65
2022/01/03 14:13:04;;;;;;;11.00;3.73;;;;;;;;;;6113743;28;20228;-63
2022/01/03 14:16:27;;;;;;;9.40;3.37;;;;;;;;;;6115349;28;20581;-62
2022/01/03 14:19:58;;;;;;;12.60;6.03;;;;;;;;;;6116392;28;20231;-66
2022/01/03 14:23:18;;;;;;;10.73;4.23;;;;;;;;;;6091767;29;20236;-65
2022/01/03 14:26:39;;;;;;;13.00;5.30;;;;;;;;;;6100087;28;20228;-64
2022/01/03 14:30:16;;;;;;;9.83;3.93;;;;;;;;;;6106807;28;20241;-65
2022/01/03 14:33:37;;;;;;;20.60;5.83;;;;;;;;;;6095864;28;20240;-65
2022/01/03 14:36:59;;;;;;;17.47;4.27;;;;;;;;;;6118514;28;20243;-65
2022/01/03 14:40:20;;;;;;;13.20;3.70;;;;;;;;;;6108273;28;20244;-65
2022/01/03 14:43:40;;;;;;;10.17;4.90;;;;;;;;;;6091811;28;20544;-65
2022/01/03 14:47:04;;;;;;;12.57;4.80;;;;;;;;;;6104619;28;20594;-66
2022/01/03 14:50:25;;;;;;;19.07;4.13;;;;;;;;;;6104528;28;20494;-65
2022/01/03 14:53:45;;;;;;;14.03;5.50;;;;;;;;;;6097730;28;20221;-65
2022/01/03 14:57:16;;;;;;;15.20;4.97;;;;;;;;;;6109919;28;20248;-65
2022/01/03 15:00:37;;;;;;;17.10;4.73;;;;;;;;;;6106847;28;20235;-66
2022/01/03 15:03:59;;;;;;;13.27;4.07;;;;;;;;;;6105597;28;20240;-65
2022/01/03 15:07:20;;;;;;;11.73;4.37;;;;;;;;;;6105790;28;20236;-65
2022/01/03 15:10:41;;;;;;;10.07;4.60;;;;;;;;;;6091383;29;20241;-66
2022/01/03 15:14:01;;;;;;;13.07;5.07;;;;;;;;;;6100326;28;20233;-66
2022/01/03 15:17:22;;;;;;;19.60;6.03;;;;;;;;;;6093495;28;20308;-65
2022/01/03 15:20:44;;;;;;;8.53;4.50;;;;;;;;;;6111354;28;20645;-65
2022/01/03 15:24:05;;;;;;;14.00;4.50;;;;;;;;;;6113943;28;20235;-66
2022/01/03 15:27:25;;;;;;;15.00;4.70;;;;;;;;;;6114958;28;21104;-65
2022/01/03 15:30:46;;;;;;;13.80;5.57;;;;;;;;;;6116554;28;20236;-66
2022/01/03 15:34:07;;;;;;;17.50;5.37;;;;;;;;;;6111718;28;20544;-66
2022/01/03 15:37:28;;;;;;;14.00;5.50;;;;;;;;;;6106851;28;20310;-66
2022/01/03 15:40:50;;;;;;;15.27;3.90;;;;;;;;;;6106388;28;20318;-66
2022/01/03 15:44:11;;;;;;;13.53;5.10;;;;;;;;;;6107676;28;20653;-65
2022/01/03 15:47:32;;;;;;;15.27;4.07;;;;;;;;;;6104587;28;20227;-65
2022/01/03 15:50:52;;;;;;;13.73;4.60;;;;;;;;;;6105504;28;20335;-66
2022/01/03 15:54:14;;;;;;;13.27;4.13;;;;;;;;;;6109844;28;20244;-66
2022/01/03 15:57:36;;;;;;;11.93;3.00;;;;;;;;;;6100689;28;20502;-66
2022/01/03 16:00:56;;;;;;;5.80;1.80;;;;;;;;;;6100578;28;20236;-66
2022/01/03 16:04:19;;;;;;;2.30;1.27;;;;;;;;;;6108455;28;20243;-65
2022/01/03 16:07:40;;;;;;;9.93;2.43;;;;;;;;;;6105336;28;20251;-66
2022/01/03 16:11:05;;;;;;;4.43;1.80;;;;;;;;;;6106272;28;20225;-66
2022/01/03 16:14:25;;;;;;;7.07;3.03;;;;;;;;;;6106938;28;20232;-67
2022/01/03 16:17:46;;;;;;;3.93;2.60;;;;;;;;;;6104549;28;20330;-66
2022/01/03 16:21:06;;;;;;;6.00;2.20;;;;;;;;;;6110152;28;20240;-65
2022/01/03 16:24:27;;;;;;;9.23;3.73;;;;;;;;;;6114249;28;20239;-66
2022/01/03 16:27:49;;;;;;;6.97;4.07;;;;;;;;;;6111229;28;20239;-67
2022/01/03 16:31:10;;;;;;;9.60;3.57;;;;;;;;;;6109438;28;20235;-65
2022/01/03 16:34:31;;;;;;;11.43;4.53;;;;;;;;;;6112994;28;20602;-66
2022/01/03 16:37:51;;;;;;;3.10;2.27;;;;;;;;;;6111884;28;20240;-64
2022/01/03 16:41:12;;;;;;;11.60;3.77;;;;;;;;;;6101771;28;20252;-67
2022/01/03 16:44:36;;;;;;;5.80;2.80;;;;;;;;;;6105743;28;20290;-65
2022/01/03 16:47:57;;;;;;;9.10;3.33;;;;;;;;;;6104941;28;20235;-67
2022/01/03 16:51:18;;;;;;;6.27;3.37;;;;;;;;;;6099315;28;20315;-65
2022/01/03 16:54:39;;;;;;;8.23;4.97;;;;;;;;;;6111315;28;20232;-66
2022/01/03 16:57:59;;;;;;;13.17;5.10;;;;;;;;;;6114944;28;20232;-65
2022/01/03 17:01:21;;;;;;;11.83;5.00;;;;;;;;;;6107354;28;20251;-65
2022/01/03 17:04:42;;;;;;;11.30;4.37;;;;;;;;;;6110130;28;20280;-65
2022/01/03 17:08:02;;;;;;;8.17;4.40;;;;;;;;;;6106057;28;20228;-65
2022/01/03 17:11:23;;;;;;;14.77;4.27;;;;;;;;;;6108928;28;20239;-66
2022/01/03 17:14:44;;;;;;;10.50;4.53;;;;;;;;;;6110437;28;20247;-66
2022/01/03 17:18:06;;;;;;;19.80;5.83;;;;;;;;;;6107714;28;20239;-65
2022/01/03 17:21:26;;;;;;;13.43;5.33;;;;;;;;;;6109488;28;20274;-65
2022/01/03 17:24:47;;;;;;;17.37;6.03;;;;;;;;;;6112849;28;20331;-66
2022/01/03 17:28:07;;;;;;;12.90;5.57;;;;;;;;;;6112726;28;20663;-66
2022/01/03 17:31:28;;;;;;;14.50;4.77;;;;;;;;;;6111895;28;20239;-66
2022/01/03 17:34:50;;;;;;;17.87;4.63;;;;;;;;;;6109748;28;20231;-66
2022/01/03 17:38:10;;;;;;;11.50;4.40;;;;;;;;;;6108257;28;20239;-66
2022/01/03 17:41:30;;;;;;;13.90;5.10;;;;;;;;;;6107113;28;20252;-66
2022/01/03 17:44:51;;;;;;;15.00;5.33;;;;;;;;;;6105684;28;20606;-65
2022/01/03 17:48:11;;;;;;;19.43;5.63;;;;;;;;;;6109751;28;20239;-65
2022/01/03 17:51:34;;;;;;;21.37;5.63;;;;;;;;;;6115423;28;20263;-66
2022/01/03 17:54:54;;;;;;;21.33;6.53;;;;;;;;;;6116819;28;20260;-65
2022/01/03 17:58:17;;;;;;;18.07;6.00;;;;;;;;;;6115492;28;20232;-65
2022/01/03 18:01:42;;;;;;;17.17;5.17;;;;;;;;;;6108487;28;20244;-66
2022/01/03 18:05:02;;;;;;;17.93;6.60;;;;;;;;;;6108844;28;20339;-65
2022/01/03 18:08:24;;;;;;;21.13;6.60;;;;;;;;;;6111150;28;20239;-65
2022/01/03 18:11:45;;;;;;;20.80;7.83;;;;;;;;;;6113288;28;20354;-65
2022/01/03 18:15:06;;;;;;;25.57;6.90;;;;;;;;;;6108395;28;20570;-65
2022/01/03 18:18:27;;;;;;;18.70;4.40;;;;;;;;;;6113007;28;20613;-65
2022/01/03 18:21:48;;;;;;;10.13;3.90;;;;;;;;;;6106202;28;20248;-65
2022/01/03 18:25:10;;;;;;;9.43;4.90;;;;;;;;;;6108982;28;20234;-64
2022/01/03 18:28:30;;;;;;;12.77;5.87;;;;;;;;;;6112241;28;20231;-65
2022/01/03 18:31:52;;;;;;;13.33;5.33;;;;;;;;;;6109614;28;20236;-66
2022/01/03 18:35:13;;;;;;;12.93;4.43;;;;;;;;;;6114462;28;20254;-65
2022/01/03 18:38:33;;;;;;;12.43;7.03;;;;;;;;;;6113490;28;20232;-65
2022/01/03 18:41:55;;;;;;;16.70;7.07;;;;;;;;;;6113853;28;20236;-65
2022/01/03 18:45:15;;;;;;;14.20;5.97;;;;;;;;;;6107608;28;20235;-66
2022/01/03 18:48:38;;;;;;;17.20;6.07;;;;;;;;;;6113978;28;20231;-65
2022/01/03 18:51:59;;;;;;;33.27;7.67;;;;;;;;;;6110958;28;20310;-65
2022/01/03 18:55:21;;;;;;;14.43;5.07;;;;;;;;;;6113185;28;20228;-66
2022/01/03 18:58:43;;;;;;;10.93;4.20;;;;;;;;;;6115191;28;20247;-65
2022/01/03 19:02:04;;;;;;;13.47;4.43;;;;;;;;;;6106383;28;20236;-65
2022/01/03 19:05:24;;;;;;;16.50;5.43;;;;;;;;;;6109976;28;20247;-66
2022/01/03 19:08:45;;;;;;;15.93;5.57;;;;;;;;;;6115073;28;20236;-66
2022/01/03 19:12:06;;;;;;;20.10;6.50;;;;;;;;;;6114557;28;20323;-65
2022/01/03 19:15:28;;;;;;;15.67;6.93;;;;;;;;;;6100829;28;20231;-64
2022/01/03 19:18:48;;;;;;;17.90;5.40;;;;;;;;;;6107890;28;20251;-66
2022/01/03 19:22:10;;;;;;;17.37;6.93;;;;;;;;;;6108333;28;20255;-65
2022/01/03 19:25:31;;;;;;;15.87;5.33;;;;;;;;;;6110590;28;20629;-66
2022/01/03 19:28:54;;;;;;;15.17;5.17;;;;;;;;;;6114213;28;20481;-66
2022/01/03 19:32:18;;;;;;;19.20;5.77;;;;;;;;;;6111110;28;20315;-64
2022/01/03 19:39:17;;;;;;;15.53;5.70;;;;;;;;;;6112818;28;20227;-65
2022/01/03 19:42:38;;;;;;;24.03;5.83;;;;;;;;;;6111329;28;20247;-65
2022/01/03 19:45:59;;;;;;;18.20;4.43;;;;;;;;;;6111409;28;20252;-65
2022/01/03 19:49:21;;;;;;;16.47;6.30;;;;;;;;;;6110209;28;20227;-65
2022/01/03 19:52:41;;;;;;;16.03;6.10;;;;;;;;;;6108958;28;20263;-66
2022/01/03 19:56:02;;;;;;;14.77;4.70;;;;;;;;;;6107554;28;20304;-65
2022/01/03 19:59:24;;;;;;;14.80;5.67;;;;;;;;;;6106404;28;20236;-65
2022/01/03 20:02:44;;;;;;;15.53;5.77;;;;;;;;;;6105483;28;20322;-66
2022/01/03 20:06:07;;;;;;;12.40;4.80;;;;;;;;;;6109965;28;20228;-64
2022/01/03 20:09:28;;;;;;;13.13;6.20;;;;;;;;;;6105672;28;20236;-65
2022/01/03 20:12:48;;;;;;;15.23;5.77;;;;;;;;;;6103310;28;20232;-65
2022/01/03 20:16:09;;;;;;;14.50;5.33;;;;;;;;;;6104432;28;20224;-64
2022/01/03 20:19:29;;;;;;;13.17;5.90;;;;;;;;;;6091090;28;20232;-65
2022/01/03 20:22:52;;;;;;;13.80;4.80;;;;;;;;;;6102252;28;20236;-64
2022/01/03 20:26:12;;;;;;;21.23;7.27;;;;;;;;;;6107267;28;20236;-65